createdAt,value
2018-09-27T00:02:24.972Z,2.77
2018-09-27T00:04:53.754Z,2.70
2018-09-27T00:07:22.338Z,2.90
2018-09-27T00:09:51.128Z,2.80
2018-09-27T00:12:19.899Z,2.70
2018-09-27T00:14:48.623Z,2.50
2018-09-27T00:17:17.380Z,2.40
2018-09-27T00:19:46.109Z,2.30
2018-09-27T00:22:14.814Z,2.93
2018-09-27T00:24:43.481Z,2.73
2018-09-27T00:27:12.144Z,2.53
2018-09-27T00:29:40.879Z,2.30
2018-09-27T00:32:09.640Z,2.53
2018-09-27T00:34:38.350Z,2.30
2018-09-27T00:37:07.091Z,2.40
2018-09-27T00:39:35.629Z,2.07
2018-09-27T00:42:04.266Z,2.10
2018-09-27T00:44:32.823Z,2.30
2018-09-27T00:47:01.483Z,2.10
2018-09-27T00:49:30.130Z,2.03
2018-09-27T00:51:58.770Z,2.00
2018-09-27T00:54:27.327Z,2.23
2018-09-27T00:56:55.932Z,2.50
2018-09-27T00:59:24.541Z,2.83
2018-09-27T01:01:53.121Z,2.47
2018-09-27T01:04:21.762Z,3.03
2018-09-27T01:06:50.727Z,3.00
2018-09-27T01:09:19.250Z,3.30
2018-09-27T01:11:47.968Z,3.60
2018-09-27T01:14:16.731Z,4.77
2018-09-27T01:16:45.399Z,4.27
2018-09-27T01:19:14.143Z,3.63
2018-09-27T01:21:42.765Z,3.50
2018-09-27T01:24:11.564Z,3.33
2018-09-27T01:26:40.265Z,2.93
2018-09-27T01:29:09.061Z,2.80
2018-09-27T01:31:37.636Z,3.27
2018-09-27T01:34:06.481Z,3.10
2018-09-27T01:36:35.017Z,2.90
2018-09-27T01:39:04.298Z,3.10
2018-09-27T01:41:33.011Z,3.27
2018-09-27T01:44:01.779Z,3.17
2018-09-27T01:46:30.387Z,3.33
2018-09-27T01:48:59.104Z,2.80
2018-09-27T01:51:27.777Z,3.00
2018-09-27T01:53:56.426Z,3.37
2018-09-27T01:56:25.231Z,3.00
2018-09-27T01:58:53.960Z,3.77
2018-09-27T02:01:22.586Z,2.70
2018-09-27T02:03:51.244Z,3.00
2018-09-27T02:06:19.908Z,3.00
2018-09-27T02:08:48.668Z,3.20
2018-09-27T02:11:17.453Z,2.67
2018-09-27T02:13:46.100Z,2.90
2018-09-27T02:16:15.045Z,3.20
2018-09-27T02:18:43.794Z,2.73
2018-09-27T02:21:12.601Z,3.40
2018-09-27T02:23:41.253Z,3.23
2018-09-27T02:26:09.996Z,2.97
2018-09-27T02:28:38.663Z,3.20
2018-09-27T02:31:07.321Z,3.37
2018-09-27T02:33:36.007Z,3.50
2018-09-27T02:36:04.713Z,4.00
2018-09-27T02:38:33.495Z,3.70
2018-09-27T02:41:03.828Z,3.30
2018-09-27T02:43:32.495Z,3.03
2018-09-27T02:46:02.527Z,3.00
2018-09-27T02:48:31.308Z,3.30
2018-09-27T02:50:59.927Z,3.30
2018-09-27T02:53:28.594Z,3.00
2018-09-27T02:55:57.668Z,3.37
2018-09-27T02:58:26.359Z,3.23
2018-09-27T03:00:54.945Z,3.50
2018-09-27T03:03:23.569Z,3.43
2018-09-27T03:05:52.313Z,3.20
2018-09-27T03:08:20.944Z,3.17
2018-09-27T03:10:49.543Z,3.50
2018-09-27T03:13:18.110Z,3.17
2018-09-27T03:15:47.014Z,3.50
2018-09-27T03:18:15.626Z,3.37
2018-09-27T03:20:44.400Z,3.20
2018-09-27T03:23:12.959Z,3.20
2018-09-27T03:25:41.604Z,3.30
2018-09-27T03:28:10.324Z,3.27
2018-09-27T03:30:38.856Z,3.30
2018-09-27T03:33:07.884Z,3.57
2018-09-27T03:35:36.529Z,4.13
2018-09-27T03:38:05.111Z,4.10
2018-09-27T03:40:33.802Z,3.97
2018-09-27T03:43:02.816Z,4.53
2018-09-27T03:45:31.383Z,4.60
2018-09-27T03:48:00.215Z,4.20
2018-09-27T03:50:28.791Z,4.20
2018-09-27T03:52:57.481Z,4.00
2018-09-27T03:55:26.183Z,3.90
2018-09-27T03:57:54.864Z,4.60
2018-09-27T04:00:23.501Z,4.30
2018-09-27T04:02:52.090Z,4.20
2018-09-27T04:05:20.751Z,4.43
2018-09-27T04:07:49.424Z,3.80
2018-09-27T04:10:17.956Z,4.07
2018-09-27T04:12:46.709Z,4.67
2018-09-27T04:15:15.271Z,4.33
2018-09-27T04:17:43.904Z,4.80
2018-09-27T04:20:12.565Z,4.50
2018-09-27T04:22:41.140Z,4.60
2018-09-27T04:25:09.703Z,4.50
2018-09-27T04:27:38.456Z,4.60
2018-09-27T04:30:08.310Z,5.30
2018-09-27T04:32:37.002Z,4.60
2018-09-27T04:35:05.639Z,4.87
2018-09-27T04:37:34.295Z,4.30
2018-09-27T04:40:03.649Z,4.53
2018-09-27T04:42:32.328Z,5.00
2018-09-27T04:45:01.095Z,4.50
2018-09-27T04:47:29.711Z,4.37
2018-09-27T04:49:58.563Z,4.30
2018-09-27T04:52:27.340Z,4.37
2018-09-27T04:54:56.067Z,4.60
2018-09-27T04:57:24.773Z,4.50
2018-09-27T04:59:53.497Z,4.83
2018-09-27T05:02:22.208Z,4.20
2018-09-27T05:04:50.896Z,4.63
2018-09-27T05:07:19.509Z,4.73
2018-09-27T05:09:48.290Z,4.50
2018-09-27T05:12:16.966Z,5.60
2018-09-27T05:14:45.652Z,6.43
2018-09-27T05:17:14.483Z,7.03
2018-09-27T05:19:43.241Z,5.10
2018-09-27T05:22:11.813Z,4.60
2018-09-27T05:24:40.406Z,4.80
2018-09-27T05:27:09.599Z,4.03
2018-09-27T05:29:38.147Z,4.30
2018-09-27T05:32:07.216Z,4.40
2018-09-27T05:34:35.907Z,4.20
2018-09-27T05:37:04.578Z,4.27
2018-09-27T05:39:33.282Z,4.17
2018-09-27T05:42:02.046Z,4.40
2018-09-27T05:44:30.588Z,4.37
2018-09-27T05:46:59.294Z,5.13
2018-09-27T05:49:28.003Z,6.00
2018-09-27T05:51:56.721Z,5.10
2018-09-27T05:54:25.689Z,4.87
2018-09-27T05:56:54.343Z,4.90
2018-09-27T05:59:22.938Z,5.03
2018-09-27T06:01:51.617Z,5.07
2018-09-27T06:04:20.399Z,4.77
2018-09-27T06:06:49.137Z,5.87
2018-09-27T06:09:17.822Z,5.67
2018-09-27T06:11:46.461Z,9.60
2018-09-27T06:14:15.345Z,7.23
2018-09-27T06:16:43.980Z,6.13
2018-09-27T06:19:13.385Z,5.57
2018-09-27T06:21:42.201Z,6.10
2018-09-27T06:24:10.828Z,5.13
2018-09-27T06:26:39.513Z,5.23
2018-09-27T06:29:08.402Z,8.23
2018-09-27T06:31:37.077Z,6.40
2018-09-27T06:34:05.720Z,6.53
2018-09-27T06:36:34.322Z,5.03
2018-09-27T06:39:03.676Z,4.43
2018-09-27T06:41:32.321Z,4.83
2018-09-27T06:44:02.621Z,4.60
2018-09-27T06:46:31.599Z,5.37
2018-09-27T06:49:00.215Z,5.87
2018-09-27T06:51:28.824Z,6.40
2018-09-27T06:53:57.918Z,6.90
2018-09-27T06:56:26.815Z,6.63
2018-09-27T06:58:55.591Z,6.20
2018-09-27T07:01:24.623Z,7.50
2018-09-27T07:03:53.551Z,6.27
2018-09-27T07:06:22.415Z,6.23
2018-09-27T07:08:51.050Z,5.33
2018-09-27T07:11:19.826Z,4.80
2018-09-27T07:13:48.649Z,4.93
2018-09-27T07:16:17.488Z,4.70
2018-09-27T07:18:46.260Z,5.97
2018-09-27T07:21:14.947Z,6.00
2018-09-27T07:23:43.586Z,4.90
2018-09-27T07:26:12.156Z,5.03
2018-09-27T07:28:40.913Z,4.30
2018-09-27T07:31:09.704Z,4.60
2018-09-27T07:33:38.455Z,5.17
2018-09-27T07:36:07.090Z,4.63
2018-09-27T07:38:35.889Z,5.43
2018-09-27T07:41:04.737Z,5.80
2018-09-27T07:43:33.873Z,4.80
2018-09-27T07:46:02.781Z,4.53
2018-09-27T07:50:54.130Z,4.50
2018-09-27T07:53:22.817Z,4.87
2018-09-27T07:55:51.340Z,5.93
2018-09-27T07:58:20.021Z,5.33
2018-09-27T08:00:48.688Z,5.13
2018-09-27T08:03:17.353Z,7.30
2018-09-27T08:05:45.949Z,4.83
2018-09-27T08:08:14.762Z,4.40
2018-09-27T08:10:43.499Z,5.43
2018-09-27T08:13:12.177Z,4.00
2018-09-27T08:15:40.711Z,4.40
2018-09-27T08:18:09.597Z,4.00
2018-09-27T08:20:38.431Z,3.70
2018-09-27T08:23:07.018Z,4.30
2018-09-27T08:25:35.682Z,3.70
2018-09-27T08:28:04.370Z,3.80
2018-09-27T08:30:33.205Z,3.93
2018-09-27T08:33:01.909Z,3.80
2018-09-27T08:35:30.608Z,4.17
2018-09-27T08:37:59.265Z,4.00
2018-09-27T08:40:27.914Z,3.80
2018-09-27T08:42:56.546Z,4.20
2018-09-27T08:45:25.417Z,4.43
2018-09-27T08:47:53.904Z,4.17
2018-09-27T08:50:22.744Z,4.80
2018-09-27T08:52:51.495Z,4.40
2018-09-27T08:55:20.252Z,4.90
2018-09-27T08:57:48.933Z,3.90
2018-09-27T09:00:17.585Z,4.05
2018-09-27T09:02:46.136Z,4.90
2018-09-27T09:05:14.845Z,4.93
2018-09-27T09:07:43.703Z,4.08
2018-09-27T09:10:12.602Z,4.57
2018-09-27T09:12:41.403Z,4.15
2018-09-27T09:15:10.244Z,4.10
2018-09-27T09:17:38.944Z,4.30
2018-09-27T09:20:08.004Z,4.25
2018-09-27T09:22:36.636Z,4.37
2018-09-27T09:25:05.181Z,4.60
2018-09-27T09:27:33.717Z,4.42
2018-09-27T09:30:02.609Z,4.15
2018-09-27T09:32:31.281Z,4.37
2018-09-27T09:35:00.066Z,4.70
2018-09-27T09:37:28.787Z,4.83
2018-09-27T09:39:57.600Z,4.83
2018-09-27T09:42:26.316Z,5.00
2018-09-27T09:44:54.975Z,5.03
2018-09-27T09:47:23.689Z,4.72
2018-09-27T09:49:52.369Z,4.70
2018-09-27T09:52:21.035Z,4.25
2018-09-27T09:54:49.842Z,4.75
2018-09-27T09:57:18.618Z,3.85
2018-09-27T09:59:47.231Z,4.60
2018-09-27T10:02:15.933Z,4.30
2018-09-27T10:04:44.504Z,3.92
2018-09-27T10:07:13.174Z,3.95
2018-09-27T10:09:41.792Z,3.65
2018-09-27T10:12:10.648Z,4.12
2018-09-27T10:14:39.280Z,3.98
2018-09-27T10:17:08.336Z,4.00
2018-09-27T10:19:37.010Z,3.65
2018-09-27T10:22:05.777Z,4.17
2018-09-27T10:24:34.362Z,5.00
2018-09-27T10:27:03.665Z,4.58
2018-09-27T10:29:32.351Z,4.10
2018-09-27T10:32:01.482Z,3.65
2018-09-27T10:34:30.211Z,3.60
2018-09-27T10:36:58.913Z,3.52
2018-09-27T10:39:27.594Z,4.22
2018-09-27T10:41:56.241Z,4.00
2018-09-27T10:44:24.935Z,3.80
2018-09-27T10:46:53.608Z,3.75
2018-09-27T10:49:22.332Z,3.67
2018-09-27T10:51:51.059Z,3.50
2018-09-27T10:54:19.771Z,3.67
2018-09-27T10:56:48.533Z,3.33
2018-09-27T10:59:17.159Z,3.58
2018-09-27T11:01:46.093Z,3.60
2018-09-27T11:04:15.155Z,3.55
2018-09-27T11:06:43.788Z,3.20
2018-09-27T11:09:13.303Z,3.40
2018-09-27T11:11:42.016Z,3.52
2018-09-27T11:14:10.764Z,3.42
2018-09-27T11:16:39.456Z,3.30
2018-09-27T11:19:08.272Z,3.22
2018-09-27T11:21:36.978Z,3.30
2018-09-27T11:24:05.672Z,2.92
2018-09-27T11:26:34.342Z,3.60
2018-09-27T11:29:09.570Z,3.10
2018-09-27T11:31:43.465Z,3.12
2018-09-27T11:34:13.496Z,2.90
2018-09-27T11:36:42.272Z,3.05
2018-09-27T11:39:11.496Z,3.02
2018-09-27T11:41:40.525Z,2.70
2018-09-27T11:44:09.370Z,3.20
2018-09-27T11:46:38.124Z,2.70
2018-09-27T11:49:07.101Z,2.98
2018-09-27T11:51:35.710Z,3.25
2018-09-27T11:54:05.309Z,3.30
2018-09-27T11:56:34.064Z,2.62
2018-09-27T11:59:02.806Z,2.98
2018-09-27T12:01:31.386Z,2.90
2018-09-27T12:04:00.147Z,2.70
2018-09-27T12:06:28.874Z,2.92
2018-09-27T12:08:57.450Z,3.27
2018-09-27T12:11:26.133Z,2.87
2018-09-27T12:13:54.839Z,2.58
2018-09-27T12:16:23.728Z,2.72
2018-09-27T12:18:53.192Z,2.60
2018-09-27T12:21:21.871Z,2.90
2018-09-27T12:23:50.557Z,2.65
2018-09-27T12:26:19.368Z,2.58
2018-09-27T12:28:48.138Z,2.40
2018-09-27T12:31:16.758Z,2.33
2018-09-27T12:33:45.673Z,2.40
2018-09-27T12:36:14.542Z,2.25
2018-09-27T12:38:43.215Z,2.20
2018-09-27T12:41:12.284Z,2.52
2018-09-27T12:43:40.875Z,1.87
2018-09-27T12:46:10.217Z,2.40
2018-09-27T12:48:38.828Z,2.70
2018-09-27T12:51:07.676Z,2.05
2018-09-27T12:53:36.219Z,2.37
2018-09-27T12:56:05.086Z,2.02
2018-09-27T12:58:33.776Z,2.50
2018-09-27T13:01:02.554Z,2.50
2018-09-27T13:03:31.261Z,1.85
2018-09-27T13:05:59.954Z,2.05
2018-09-27T13:08:29.091Z,1.98
2018-09-27T13:10:57.782Z,2.10
2018-09-27T13:13:26.528Z,2.20
2018-09-27T13:15:55.698Z,2.52
2018-09-27T13:18:24.396Z,2.25
2018-09-27T13:20:52.986Z,1.87
2018-09-27T13:23:21.620Z,2.37
2018-09-27T13:25:50.347Z,2.30
2018-09-27T13:28:19.064Z,2.10
2018-09-27T13:30:47.731Z,2.10
2018-09-27T13:33:16.442Z,1.85
2018-09-27T13:35:45.499Z,1.70
2018-09-27T13:38:15.068Z,2.05
2018-09-27T13:40:44.149Z,2.00
2018-09-27T13:43:12.908Z,1.85
2018-09-27T13:45:41.699Z,1.87
2018-09-27T13:48:10.386Z,1.80
2018-09-27T13:50:39.933Z,1.67
2018-09-27T13:53:08.855Z,1.50
2018-09-27T13:55:37.592Z,1.60
2018-09-27T13:58:06.345Z,1.52
2018-09-27T14:00:35.199Z,1.67
2018-09-27T14:03:05.214Z,1.12
2018-09-27T14:05:34.031Z,1.47
2018-09-27T14:08:03.461Z,1.40
2018-09-27T14:10:32.346Z,1.52
2018-09-27T14:13:01.600Z,1.50
2018-09-27T14:15:30.530Z,1.52
2018-09-27T14:18:00.533Z,1.67
2018-09-27T14:20:29.313Z,1.40
2018-09-27T14:22:58.180Z,1.60
2018-09-27T14:25:27.017Z,1.20
2018-09-27T14:27:55.712Z,1.30
2018-09-27T14:30:24.404Z,1.40
2018-09-27T14:32:53.140Z,1.50
2018-09-27T14:35:22.127Z,1.40
2018-09-27T14:37:50.820Z,1.47
2018-09-27T14:40:19.551Z,1.27
2018-09-27T14:42:48.438Z,1.37
2018-09-27T14:45:17.484Z,1.50
2018-09-27T14:47:46.737Z,1.80
2018-09-27T14:50:16.265Z,1.40
2018-09-27T14:52:45.023Z,1.50
2018-09-27T14:55:13.948Z,1.40
2018-09-27T14:57:42.679Z,1.27
2018-09-27T15:00:12.391Z,1.37
2018-09-27T15:02:41.061Z,2.12
2018-09-27T15:05:09.731Z,2.35
2018-09-27T15:07:38.426Z,2.83
2018-09-27T15:10:07.268Z,1.57
2018-09-27T15:12:36.499Z,1.50
2018-09-27T15:15:05.529Z,1.52
2018-09-27T15:17:34.370Z,1.57
2018-09-27T15:20:04.665Z,1.20
2018-09-27T15:22:33.607Z,0.93
2018-09-27T15:25:03.620Z,1.32
2018-09-27T15:27:32.405Z,1.20
2018-09-27T15:30:07.585Z,1.40
2018-09-27T15:32:36.296Z,1.27
2018-09-27T15:35:05.274Z,1.40
2018-09-27T15:37:33.914Z,1.35
2018-09-27T15:40:02.860Z,1.22
2018-09-27T15:42:32.479Z,1.35
2018-09-27T15:45:03.183Z,1.40
2018-09-27T15:47:31.982Z,1.87
2018-09-27T15:50:00.837Z,1.20
2018-09-27T15:52:29.655Z,1.80
2018-09-27T15:54:59.349Z,1.62
2018-09-27T15:57:28.074Z,1.37
2018-09-27T15:59:56.895Z,1.30
2018-09-27T16:02:25.609Z,1.60
2018-09-27T16:04:54.271Z,1.37
2018-09-27T16:07:22.863Z,1.50
2018-09-27T16:09:51.417Z,1.67
2018-09-27T16:12:20.087Z,2.37
2018-09-27T16:14:48.763Z,2.47
2018-09-27T16:17:17.663Z,2.20
2018-09-27T16:19:46.324Z,2.10
2018-09-27T16:22:15.101Z,1.62
2018-09-27T16:24:43.687Z,1.90
2018-09-27T16:27:12.573Z,2.10
2018-09-27T16:29:41.319Z,2.10
2018-09-27T16:32:09.963Z,2.30
2018-09-27T16:34:38.649Z,2.33
2018-09-27T16:37:07.826Z,2.40
2018-09-27T16:39:36.542Z,1.80
2018-09-27T16:42:05.434Z,1.60
2018-09-27T16:44:34.214Z,1.90
2018-09-27T16:47:04.426Z,1.65
2018-09-27T16:49:33.224Z,1.60
2018-09-27T16:52:02.017Z,2.10
2018-09-27T16:54:30.673Z,2.05
2018-09-27T16:56:59.298Z,1.90
2018-09-27T16:59:28.040Z,1.77
2018-09-27T17:01:57.070Z,1.80
2018-09-27T17:04:25.882Z,1.92
2018-09-27T17:06:54.525Z,1.70
2018-09-27T17:09:23.194Z,1.80
2018-09-27T17:11:52.023Z,1.80
2018-09-27T17:14:20.855Z,2.00
2018-09-27T17:16:49.591Z,1.87
2018-09-27T17:19:18.513Z,1.90
2018-09-27T17:21:47.344Z,2.65
2018-09-27T17:24:16.567Z,2.37
2018-09-27T17:26:45.516Z,2.62
2018-09-27T17:29:14.412Z,2.20
2018-09-27T17:31:43.329Z,2.05
2018-09-27T17:34:12.023Z,2.37
2018-09-27T17:36:40.834Z,2.15
2018-09-27T17:39:09.828Z,2.55
2018-09-27T17:41:38.770Z,2.50
2018-09-27T17:44:07.663Z,2.47
2018-09-27T17:46:36.230Z,2.80
2018-09-27T17:49:04.875Z,2.98
2018-09-27T17:51:33.638Z,2.75
2018-09-27T17:54:04.473Z,3.30
2018-09-27T17:56:33.233Z,3.30
2018-09-27T17:59:02.977Z,3.55
2018-09-27T18:01:31.799Z,3.98
2018-09-27T18:04:00.563Z,3.47
2018-09-27T18:06:29.275Z,3.27
2018-09-27T18:08:57.961Z,3.40
2018-09-27T18:11:26.707Z,3.90
2018-09-27T18:13:55.894Z,3.30
2018-09-27T18:16:24.642Z,3.10
2018-09-27T18:18:53.422Z,3.25
2018-09-27T18:21:22.130Z,4.58
2018-09-27T18:23:50.768Z,4.15
2018-09-27T18:26:19.532Z,3.80
2018-09-27T18:28:48.180Z,3.98
2018-09-27T18:31:16.911Z,3.77
2018-09-27T18:33:45.639Z,3.87
2018-09-27T18:36:14.408Z,3.90
2018-09-27T18:38:43.130Z,3.87
2018-09-27T18:41:12.154Z,3.60
2018-09-27T18:43:40.877Z,3.75
2018-09-27T18:46:09.455Z,4.13
2018-09-27T18:48:38.150Z,4.67
2018-09-27T18:51:07.349Z,4.27
2018-09-27T18:53:36.138Z,3.80
2018-09-27T18:56:05.137Z,4.12
2018-09-27T18:58:34.288Z,4.17
2018-09-27T19:01:03.686Z,4.23
2018-09-27T19:03:32.488Z,4.20
2018-09-27T19:06:01.596Z,4.43
2018-09-27T19:08:30.280Z,4.27
2018-09-27T19:10:58.997Z,4.13
2018-09-27T19:13:27.761Z,4.40
2018-09-27T19:15:56.479Z,4.50
2018-09-27T19:18:25.538Z,5.67
2018-09-27T19:20:54.680Z,6.70
2018-09-27T19:23:23.629Z,7.90
2018-09-27T19:25:52.743Z,8.03
2018-09-27T19:28:21.386Z,8.00
2018-09-27T19:30:50.114Z,7.50
2018-09-27T19:33:18.872Z,6.00
2018-09-27T19:35:47.676Z,5.80
2018-09-27T19:38:16.501Z,5.27
2018-09-27T19:40:45.336Z,5.30
2018-09-27T19:43:14.059Z,5.03
2018-09-27T19:45:42.755Z,4.80
2018-09-27T19:48:11.612Z,4.17
2018-09-27T19:50:40.414Z,3.72
2018-09-27T19:53:09.085Z,3.97
2018-09-27T19:55:37.757Z,3.73
2018-09-27T19:58:06.842Z,3.37
2018-09-27T20:00:35.674Z,3.30
2018-09-27T20:03:04.418Z,2.90
2018-09-27T20:05:33.234Z,3.13
2018-09-27T20:08:02.061Z,3.00
2018-09-27T20:10:30.833Z,2.80
2018-09-27T20:12:59.539Z,2.90
2018-09-27T20:15:28.433Z,2.50
2018-09-27T20:17:57.246Z,2.77
2018-09-27T20:20:26.110Z,2.40
2018-09-27T20:22:54.924Z,2.67
2018-09-27T20:25:23.646Z,2.80
2018-09-27T20:27:52.296Z,2.93
2018-09-27T20:30:21.183Z,2.70
2018-09-27T20:32:50.010Z,2.53
2018-09-27T20:35:18.656Z,2.83
2018-09-27T20:37:47.365Z,2.70
2018-09-27T20:40:16.170Z,3.00
2018-09-27T20:42:44.938Z,2.80
2018-09-27T20:45:13.537Z,2.80
2018-09-27T20:47:42.420Z,3.20
2018-09-27T20:50:11.421Z,2.73
2018-09-27T20:52:40.169Z,3.33
2018-09-27T20:55:08.902Z,3.20
2018-09-27T20:57:37.581Z,3.03
2018-09-27T21:00:06.279Z,3.23
2018-09-27T21:02:35.140Z,3.50
2018-09-27T21:05:03.851Z,3.60
2018-09-27T21:07:32.511Z,3.37
2018-09-27T21:10:01.891Z,3.10
2018-09-27T21:12:30.522Z,3.60
2018-09-27T21:14:59.177Z,3.50
2018-09-27T21:17:27.930Z,3.30
2018-09-27T21:19:56.741Z,3.43
2018-09-27T21:22:25.460Z,3.23
2018-09-27T21:24:54.190Z,3.17
2018-09-27T21:27:22.904Z,3.07
2018-09-27T21:29:51.687Z,3.40
2018-09-27T21:32:20.552Z,3.60
2018-09-27T21:34:49.215Z,3.60
2018-09-27T21:37:17.777Z,3.80
2018-09-27T21:39:46.560Z,3.37
2018-09-27T21:42:15.238Z,3.80
2018-09-27T21:44:43.920Z,3.60
2018-09-27T21:47:12.683Z,3.43
2018-09-27T21:49:41.352Z,3.17
2018-09-27T21:52:10.068Z,3.60
2018-09-27T21:54:38.830Z,3.40
2018-09-27T21:57:07.571Z,3.53
2018-09-27T21:59:36.224Z,3.33
2018-09-27T22:02:04.922Z,3.43
2018-09-27T22:04:33.633Z,3.47
2018-09-27T22:07:02.832Z,3.50
2018-09-27T22:09:31.571Z,3.57
2018-09-27T22:12:00.313Z,3.73
2018-09-27T22:14:28.966Z,3.60
2018-09-27T22:16:57.667Z,3.83
2018-09-27T22:19:26.465Z,3.30
2018-09-27T22:21:55.324Z,3.40
2018-09-27T22:24:24.099Z,4.00
2018-09-27T22:26:52.643Z,3.53
2018-09-27T22:29:21.178Z,3.90
2018-09-27T22:31:49.945Z,3.37
2018-09-27T22:34:18.925Z,3.53
2018-09-27T22:36:47.568Z,3.47
2018-09-27T22:39:16.134Z,3.80
2018-09-27T22:41:44.717Z,3.57
2018-09-27T22:44:13.425Z,3.70
2018-09-27T22:46:42.112Z,3.90
2018-09-27T22:49:10.888Z,3.40
2018-09-27T22:51:39.537Z,3.80
2018-09-27T22:54:08.323Z,3.60
2018-09-27T22:56:36.953Z,3.37
2018-09-27T22:59:05.781Z,3.57
2018-09-27T23:01:34.414Z,3.50
2018-09-27T23:04:03.577Z,3.57
2018-09-27T23:06:32.287Z,3.53
2018-09-27T23:09:00.933Z,3.23
2018-09-27T23:11:33.634Z,3.40
2018-09-27T23:14:05.124Z,3.17
2018-09-27T23:16:33.721Z,3.47
2018-09-27T23:19:03.699Z,3.73
2018-09-27T23:21:32.336Z,3.70
2018-09-27T23:24:01.634Z,3.90
2018-09-27T23:26:30.355Z,3.60
2018-09-27T23:28:59.142Z,3.30
2018-09-27T23:31:28.439Z,3.10
2018-09-27T23:33:57.073Z,3.57
2018-09-27T23:36:25.669Z,3.40
2018-09-27T23:38:54.430Z,3.43
2018-09-27T23:41:23.013Z,3.63
2018-09-27T23:43:51.789Z,3.67
2018-09-27T23:46:20.566Z,3.37
2018-09-27T23:48:49.260Z,3.43
2018-09-27T23:51:17.882Z,4.03
2018-09-27T23:53:46.663Z,4.30
2018-09-27T23:56:15.234Z,4.07
2018-09-27T23:58:43.947Z,4.27
